Terminal Aerodrome Forecast
Issued by NWS Charleston, WV

Home | Current Version | Previous Version | Text Only | Print | Product List | Glossary On
Versions: 1 2 3 4 5 6 7 8 9 10 11 12 13 14 15 16 17 18 19 20
000
FTUS41 KRLX 291900 AAA
TAFHTS
TAF AMD
KHTS 291956Z 2920/3018 20008KT P6SM SCT200
     FM300400 21008KT 6SM -SHRA BR BKN035 OVC060
     FM300800 24009G20KT 4SM -SHRA BR BKN025 OVC040
     FM301100 26005KT P6SM BKN020
     FM301400 27007KT P6SM FEW035=

USA.gov is the U.S. government's official web portal to all federal, state and local government web resources and services.